sensor_id;sensor_type;location;lat;lon;timestamp;pressure;altitude;pressure_sealevel;temperature;humidity
60061;BME280;45933;51.336;12.612;2023-03-23T00:00:36;99018.28;;;15.07;43.89
60061;BME280;45933;51.336;12.612;2023-03-23T00:03:02;99025.47;;;15.04;43.77
60061;BME280;45933;51.336;12.612;2023-03-23T00:05:27;99017.41;;;15.08;43.76
60061;BME280;45933;51.336;12.612;2023-03-23T00:07:54;99013.19;;;15.04;44.05
60061;BME280;45933;51.336;12.612;2023-03-23T00:10:20;99004.50;;;15.02;43.88
60061;BME280;45933;51.336;12.612;2023-03-23T00:12:46;98999.41;;;14.99;44.09
60061;BME280;45933;51.336;12.612;2023-03-23T00:15:15;98991.34;;;15.04;43.95
60061;BME280;45933;51.336;12.612;2023-03-23T00:17:42;98995.59;;;15.06;43.63
60061;BME280;45933;51.336;12.612;2023-03-23T00:20:09;98993.81;;;15.07;43.63
60061;BME280;45933;51.336;12.612;2023-03-23T00:22:37;98991.25;;;15.05;43.70
60061;BME280;45933;51.336;12.612;2023-03-23T00:25:05;98992.84;;;15.09;43.49
60061;BME280;45933;51.336;12.612;2023-03-23T00:27:31;98991.16;;;15.08;43.59
60061;BME280;45933;51.336;12.612;2023-03-23T00:29:56;98984.38;;;15.03;43.67
60061;BME280;45933;51.336;12.612;2023-03-23T00:32:24;98973.75;;;15.06;43.75
60061;BME280;45933;51.336;12.612;2023-03-23T00:34:54;98977.59;;;14.97;43.76
60061;BME280;45933;51.336;12.612;2023-03-23T00:37:20;98972.97;;;15.04;43.60
60061;BME280;45933;51.336;12.612;2023-03-23T00:39:46;98972.13;;;15.03;43.53
60061;BME280;45933;51.336;12.612;2023-03-23T00:42:13;98960.34;;;14.91;43.63
60061;BME280;45933;51.336;12.612;2023-03-23T00:44:39;98967.09;;;14.97;43.47
60061;BME280;45933;51.336;12.612;2023-03-23T00:47:05;98972.13;;;15.03;43.31
60061;BME280;45933;51.336;12.612;2023-03-23T00:49:31;98963.31;;;15.04;43.26
60061;BME280;45933;51.336;12.612;2023-03-23T00:51:59;98954.53;;;15.05;43.26
60061;BME280;45933;51.336;12.612;2023-03-23T00:54:25;98960.22;;;14.95;43.34
60061;BME280;45933;51.336;12.612;2023-03-23T00:56:51;98950.38;;;15.00;43.21
60061;BME280;45933;51.336;12.612;2023-03-23T00:59:16;98959.84;;;15.04;43.10
60061;BME280;45933;51.336;12.612;2023-03-23T01:01:42;98959.00;;;15.03;42.92
60061;BME280;45933;51.336;12.612;2023-03-23T01:04:07;98952.91;;;15.03;42.90
60061;BME280;45933;51.336;12.612;2023-03-23T01:06:35;98952.75;;;15.06;43.18
60061;BME280;45933;51.336;12.612;2023-03-23T01:09:05;98953.59;;;15.06;42.70
60061;BME280;45933;51.336;12.612;2023-03-23T01:11:31;98951.13;;;15.03;43.14
60061;BME280;45933;51.336;12.612;2023-03-23T01:13:57;98952.09;;;15.01;42.81
60061;BME280;45933;51.336;12.612;2023-03-23T01:16:22;98953.97;;;14.97;42.82
60061;BME280;45933;51.336;12.612;2023-03-23T01:18:48;98962.00;;;14.94;42.71
60061;BME280;45933;51.336;12.612;2023-03-23T01:21:16;98952.22;;;14.98;42.71
60061;BME280;45933;51.336;12.612;2023-03-23T01:23:42;98951.16;;;15.02;42.55
60061;BME280;45933;51.336;12.612;2023-03-23T01:26:11;98957.22;;;15.04;42.42
60061;BME280;45933;51.336;12.612;2023-03-23T01:28:37;98940.41;;;15.08;42.40
60061;BME280;45933;51.336;12.612;2023-03-23T01:31:04;98939.78;;;15.03;42.54
60061;BME280;45933;51.336;12.612;2023-03-23T01:33:31;98934.63;;;15.00;42.59
60061;BME280;45933;51.336;12.612;2023-03-23T01:35:57;98940.19;;;14.92;42.67
60061;BME280;45933;51.336;12.612;2023-03-23T01:38:22;98938.97;;;15.01;42.29
60061;BME280;45933;51.336;12.612;2023-03-23T01:40:48;98942.69;;;14.95;42.41
60061;BME280;45933;51.336;12.612;2023-03-23T01:43:15;98931.63;;;14.88;42.72
60061;BME280;45933;51.336;12.612;2023-03-23T01:45:41;98936.59;;;14.95;42.48
60061;BME280;45933;51.336;12.612;2023-03-23T01:48:32;98936.59;;;14.95;42.53
60061;BME280;45933;51.336;12.612;2023-03-23T01:51:12;98932.09;;;14.98;42.56
60061;BME280;45933;51.336;12.612;2023-03-23T01:56:11;98934.41;;;14.84;42.77
60061;BME280;45933;51.336;12.612;2023-03-23T01:58:39;98931.03;;;14.82;42.74
60061;BME280;45933;51.336;12.612;2023-03-23T02:01:09;98926.66;;;14.81;42.81
60061;BME280;45933;51.336;12.612;2023-03-23T02:03:42;98926.00;;;14.76;42.93
60061;BME280;45933;51.336;12.612;2023-03-23T02:06:08;98930.66;;;14.69;43.01
60061;BME280;45933;51.336;12.612;2023-03-23T02:08:35;98924.22;;;14.76;42.75
60061;BME280;45933;51.336;12.612;2023-03-23T02:11:01;98923.38;;;14.76;42.72
60061;BME280;45933;51.336;12.612;2023-03-23T02:13:27;98919.97;;;14.74;42.67
60061;BME280;45933;51.336;12.612;2023-03-23T02:16:02;98921.59;;;14.76;42.67
60061;BME280;45933;51.336;12.612;2023-03-23T02:27:16;98901.34;;;14.80;42.74
60061;BME280;45933;51.336;12.612;2023-03-23T02:30:01;98901.25;;;14.83;42.63
60061;BME280;45933;51.336;12.612;2023-03-23T02:35:31;98901.50;;;14.77;42.82
60061;BME280;45933;51.336;12.612;2023-03-23T02:38:15;98895.44;;;14.75;42.97
60061;BME280;45933;51.336;12.612;2023-03-23T02:40:45;98891.31;;;14.69;43.16
60061;BME280;45933;51.336;12.612;2023-03-23T02:43:17;98892.91;;;14.73;43.14
60061;BME280;45933;51.336;12.612;2023-03-23T02:45:45;98889.28;;;14.76;43.03
60061;BME280;45933;51.336;12.612;2023-03-23T02:48:13;98886.53;;;14.79;43.09
60061;BME280;45933;51.336;12.612;2023-03-23T02:50:43;98884.94;;;14.75;43.41
60061;BME280;45933;51.336;12.612;2023-03-23T02:53:10;98884.38;;;14.68;43.38
60061;BME280;45933;51.336;12.612;2023-03-23T02:55:41;98878.84;;;14.74;43.12
60061;BME280;45933;51.336;12.612;2023-03-23T02:58:08;98880.03;;;14.67;43.45
60061;BME280;45933;51.336;12.612;2023-03-23T03:00:33;98875.75;;;14.64;43.47
60061;BME280;45933;51.336;12.612;2023-03-23T03:02:59;98871.25;;;14.68;43.29
60061;BME280;45933;51.336;12.612;2023-03-23T03:08:24;98867.78;;;14.68;43.44
60061;BME280;45933;51.336;12.612;2023-03-23T03:11:02;98864.31;;;14.67;43.61
60061;BME280;45933;51.336;12.612;2023-03-23T03:13:48;98860.28;;;14.58;43.79
60061;BME280;45933;51.336;12.612;2023-03-23T03:19:16;98866.06;;;14.67;43.65
60061;BME280;45933;51.336;12.612;2023-03-23T03:21:46;98851.44;;;14.61;43.88
60061;BME280;45933;51.336;12.612;2023-03-23T03:24:15;98855.78;;;14.62;43.85
60061;BME280;45933;51.336;12.612;2023-03-23T03:26:45;98846.38;;;14.56;44.06
60061;BME280;45933;51.336;12.612;2023-03-23T03:29:13;98848.19;;;14.54;44.11
60061;BME280;45933;51.336;12.612;2023-03-23T03:31:43;98829.00;;;14.54;44.12
60061;BME280;45933;51.336;12.612;2023-03-23T03:34:10;98829.00;;;14.54;43.92
60061;BME280;45933;51.336;12.612;2023-03-23T03:36:36;98835.94;;;14.55;44.05
60061;BME280;45933;51.336;12.612;2023-03-23T03:39:07;98843.03;;;14.53;44.26
60061;BME280;45933;51.336;12.612;2023-03-23T03:41:35;98839.44;;;14.55;43.92
60061;BME280;45933;51.336;12.612;2023-03-23T03:44:00;98841.06;;;14.58;43.93
60061;BME280;45933;51.336;12.612;2023-03-23T03:46:26;98850.31;;;14.45;44.23
60061;BME280;45933;51.336;12.612;2023-03-23T03:48:55;98853.19;;;14.38;44.59
60061;BME280;45933;51.336;12.612;2023-03-23T03:51:22;98848.69;;;14.42;44.63
60061;BME280;45933;51.336;12.612;2023-03-23T03:53:47;98847.66;;;14.46;44.12
60061;BME280;45933;51.336;12.612;2023-03-23T03:56:12;98837.91;;;14.50;44.25
60061;BME280;45933;51.336;12.612;2023-03-23T03:58:38;98837.97;;;14.48;44.37
60061;BME280;45933;51.336;12.612;2023-03-23T04:01:04;98844.03;;;14.50;44.38
60061;BME280;45933;51.336;12.612;2023-03-23T04:03:29;98854.84;;;14.63;43.79
60061;BME280;45933;51.336;12.612;2023-03-23T04:05:55;98854.06;;;14.61;44.37
60061;BME280;45933;51.336;12.612;2023-03-23T04:08:23;98848.50;;;14.69;44.25
60061;BME280;45933;51.336;12.612;2023-03-23T04:10:49;98842.59;;;14.63;44.52
60061;BME280;45933;51.336;12.612;2023-03-23T04:13:15;98850.63;;;14.59;44.75
60061;BME280;45933;51.336;12.612;2023-03-23T04:15:41;98843.38;;;14.65;44.59
60061;BME280;45933;51.336;12.612;2023-03-23T04:18:06;98845.03;;;14.68;44.79
60061;BME280;45933;51.336;12.612;2023-03-23T04:20:32;98859.16;;;14.64;44.57
60061;BME280;45933;51.336;12.612;2023-03-23T04:23:00;98852.78;;;14.71;44.48
60061;BME280;45933;51.336;12.612;2023-03-23T04:25:25;98866.59;;;14.75;44.55
60061;BME280;45933;51.336;12.612;2023-03-23T04:27:52;98862.16;;;14.77;44.57
60061;BME280;45933;51.336;12.612;2023-03-23T04:30:22;98876.22;;;14.74;44.73
60061;BME280;45933;51.336;12.612;2023-03-23T04:32:49;98876.13;;;14.77;44.65
60061;BME280;45933;51.336;12.612;2023-03-23T04:35:16;98865.56;;;14.79;44.54
60061;BME280;45933;51.336;12.612;2023-03-23T04:37:42;98871.53;;;14.82;44.44
60061;BME280;45933;51.336;12.612;2023-03-23T04:40:08;98877.63;;;14.83;44.46
60061;BME280;45933;51.336;12.612;2023-03-23T04:42:37;98868.91;;;14.82;44.46
60061;BME280;45933;51.336;12.612;2023-03-23T04:45:05;98867.25;;;14.80;44.63
60061;BME280;45933;51.336;12.612;2023-03-23T04:47:33;98869.88;;;14.80;44.68
60061;BME280;45933;51.336;12.612;2023-03-23T04:49:59;98862.84;;;14.80;44.69
60061;BME280;45933;51.336;12.612;2023-03-23T04:52:26;98869.03;;;14.79;44.70
60061;BME280;45933;51.336;12.612;2023-03-23T04:54:53;98876.19;;;14.96;44.27
60061;BME280;45933;51.336;12.612;2023-03-23T04:57:21;98868.38;;;14.95;44.51
60061;BME280;45933;51.336;12.612;2023-03-23T04:59:46;98866.59;;;14.95;44.55
60061;BME280;45933;51.336;12.612;2023-03-23T05:02:13;98865.63;;;14.98;44.73
60061;BME280;45933;51.336;12.612;2023-03-23T05:04:39;98876.13;;;14.98;44.60
60061;BME280;45933;51.336;12.612;2023-03-23T05:07:06;98872.59;;;14.99;44.59
60061;BME280;45933;51.336;12.612;2023-03-23T05:09:32;98875.06;;;15.02;44.52
60061;BME280;45933;51.336;12.612;2023-03-23T05:11:57;98889.19;;;14.99;45.02
60061;BME280;45933;51.336;12.612;2023-03-23T05:14:24;98878.13;;;14.91;44.86
60061;BME280;45933;51.336;12.612;2023-03-23T05:16:50;98888.38;;;14.97;44.84
60061;BME280;45933;51.336;12.612;2023-03-23T05:19:17;98892.13;;;14.91;44.80
60061;BME280;45933;51.336;12.612;2023-03-23T05:21:42;98891.06;;;14.96;44.98
60061;BME280;45933;51.336;12.612;2023-03-23T05:24:09;98885.72;;;14.99;44.83
60061;BME280;45933;51.336;12.612;2023-03-23T05:26:35;98885.63;;;15.00;44.73
60061;BME280;45933;51.336;12.612;2023-03-23T05:29:00;98876.25;;;14.95;45.03
60061;BME280;45933;51.336;12.612;2023-03-23T05:31:26;98870.16;;;14.94;45.07
60061;BME280;45933;51.336;12.612;2023-03-23T05:33:51;98871.13;;;14.91;45.15
60061;BME280;45933;51.336;12.612;2023-03-23T05:36:17;98879.06;;;14.90;45.01
60061;BME280;45933;51.336;12.612;2023-03-23T05:38:42;98878.81;;;14.96;45.10
60061;BME280;45933;51.336;12.612;2023-03-23T05:41:11;98892.34;;;14.87;45.25
60061;BME280;45933;51.336;12.612;2023-03-23T05:43:37;98885.75;;;14.97;45.27
60061;BME280;45933;51.336;12.612;2023-03-23T05:46:02;98885.81;;;14.96;45.14
60061;BME280;45933;51.336;12.612;2023-03-23T05:48:28;98887.53;;;14.97;45.06
60061;BME280;45933;51.336;12.612;2023-03-23T05:50:53;98884.31;;;14.90;45.54
60061;BME280;45933;51.336;12.612;2023-03-23T05:53:18;98891.91;;;14.96;45.64
60061;BME280;45933;51.336;12.612;2023-03-23T05:55:44;98891.88;;;14.98;46.13
60061;BME280;45933;51.336;12.612;2023-03-23T05:58:10;98890.03;;;15.00;46.19
60061;BME280;45933;51.336;12.612;2023-03-23T06:00:35;98887.47;;;14.98;46.50
60061;BME280;45933;51.336;12.612;2023-03-23T06:03:01;98890.88;;;15.00;46.50
60061;BME280;45933;51.336;12.612;2023-03-23T06:05:27;98895.34;;;14.98;46.48
60061;BME280;45933;51.336;12.612;2023-03-23T06:07:54;98900.44;;;15.01;46.42
60061;BME280;45933;51.336;12.612;2023-03-23T06:10:19;98907.00;;;14.91;46.76
60061;BME280;45933;51.336;12.612;2023-03-23T06:12:45;98916.38;;;14.97;46.62
60061;BME280;45933;51.336;12.612;2023-03-23T06:15:11;98921.78;;;14.94;46.95
60061;BME280;45933;51.336;12.612;2023-03-23T06:17:37;98917.31;;;14.96;47.04
60061;BME280;45933;51.336;12.612;2023-03-23T06:20:05;98920.09;;;14.93;47.70
60061;BME280;45933;51.336;12.612;2023-03-23T06:22:38;98916.84;;;14.86;47.71
60061;BME280;45933;51.336;12.612;2023-03-23T06:25:05;98917.69;;;14.86;47.73
60061;BME280;45933;51.336;12.612;2023-03-23T06:27:31;98923.81;;;14.87;47.52
60061;BME280;45933;51.336;12.612;2023-03-23T06:29:56;98939.75;;;14.82;48.16
60061;BME280;45933;51.336;12.612;2023-03-23T06:32:22;98937.13;;;14.82;48.84
60061;BME280;45933;51.336;12.612;2023-03-23T06:34:48;98935.38;;;14.81;48.95
60061;BME280;45933;51.336;12.612;2023-03-23T06:37:14;98937.31;;;14.78;49.45
60061;BME280;45933;51.336;12.612;2023-03-23T06:39:41;98930.34;;;14.77;49.62
60061;BME280;45933;51.336;12.612;2023-03-23T06:42:09;98938.91;;;14.82;49.67
60061;BME280;45933;51.336;12.612;2023-03-23T06:44:35;98945.03;;;14.81;49.40
60061;BME280;45933;51.336;12.612;2023-03-23T06:47:00;98942.72;;;14.73;49.84
60061;BME280;45933;51.336;12.612;2023-03-23T06:49:27;98941.75;;;14.76;50.35
60061;BME280;45933;51.336;12.612;2023-03-23T06:51:52;98935.78;;;14.72;50.07
60061;BME280;45933;51.336;12.612;2023-03-23T06:54:18;98946.97;;;14.76;50.04
60061;BME280;45933;51.336;12.612;2023-03-23T06:56:43;98945.28;;;14.75;50.10
60061;BME280;45933;51.336;12.612;2023-03-23T06:59:08;98942.72;;;14.73;50.28
60061;BME280;45933;51.336;12.612;2023-03-23T07:01:35;98953.28;;;14.72;50.26
60061;BME280;45933;51.336;12.612;2023-03-23T07:04:01;98955.06;;;14.71;50.31
60061;BME280;45933;51.336;12.612;2023-03-23T07:06:27;98955.97;;;14.70;49.84
60061;BME280;45933;51.336;12.612;2023-03-23T07:08:52;98972.88;;;14.63;51.07
60061;BME280;45933;51.336;12.612;2023-03-23T07:11:18;98968.47;;;14.63;50.43
60061;BME280;45933;51.336;12.612;2023-03-23T07:13:43;98975.50;;;14.63;50.92
60061;BME280;45933;51.336;12.612;2023-03-23T07:16:08;98980.66;;;14.64;51.09
60061;BME280;45933;51.336;12.612;2023-03-23T07:18:34;98978.03;;;14.64;51.15
60061;BME280;45933;51.336;12.612;2023-03-23T07:20:59;98990.44;;;14.61;51.15
60061;BME280;45933;51.336;12.612;2023-03-23T07:23:25;98999.03;;;14.64;51.46
60061;BME280;45933;51.336;12.612;2023-03-23T07:25:50;98996.38;;;14.66;51.64
60061;BME280;45933;51.336;12.612;2023-03-23T07:28:16;98993.78;;;14.64;51.84
60061;BME280;45933;51.336;12.612;2023-03-23T07:30:42;98997.25;;;14.65;52.01
60061;BME280;45933;51.336;12.612;2023-03-23T07:33:08;98988.59;;;14.63;51.85
60061;BME280;45933;51.336;12.612;2023-03-23T07:35:34;98975.31;;;14.68;51.88
60061;BME280;45933;51.336;12.612;2023-03-23T07:38:00;98986.81;;;14.63;52.49
60061;BME280;45933;51.336;12.612;2023-03-23T07:40:27;98983.28;;;14.64;52.47
60061;BME280;45933;51.336;12.612;2023-03-23T07:42:55;98984.09;;;14.67;52.41
60061;BME280;45933;51.336;12.612;2023-03-23T07:45:22;98983.19;;;14.68;52.51
60061;BME280;45933;51.336;12.612;2023-03-23T07:47:48;98990.44;;;14.61;53.30
60061;BME280;45933;51.336;12.612;2023-03-23T07:50:14;98987.50;;;14.69;52.35
60061;BME280;45933;51.336;12.612;2023-03-23T07:52:40;98990.19;;;14.67;53.61
60061;BME280;45933;51.336;12.612;2023-03-23T07:55:08;98998.91;;;14.68;52.93
60061;BME280;45933;51.336;12.612;2023-03-23T07:57:34;98994.59;;;14.67;53.19
60061;BME280;45933;51.336;12.612;2023-03-23T07:59:59;98993.66;;;14.68;52.53
60061;BME280;45933;51.336;12.612;2023-03-23T08:02:25;98994.44;;;14.70;53.09
60061;BME280;45933;51.336;12.612;2023-03-23T08:04:52;98997.88;;;14.72;53.06
60061;BME280;45933;51.336;12.612;2023-03-23T08:07:19;98992.66;;;14.72;52.68
60061;BME280;45933;51.336;12.612;2023-03-23T08:09:46;98990.88;;;14.72;53.08
60061;BME280;45933;51.336;12.612;2023-03-23T08:12:12;98990.81;;;14.74;53.16
60061;BME280;45933;51.336;12.612;2023-03-23T08:14:38;98994.28;;;14.74;53.07
60061;BME280;45933;51.336;12.612;2023-03-23T08:17:05;98998.06;;;14.67;53.38
60061;BME280;45933;51.336;12.612;2023-03-23T08:19:30;98985.47;;;14.75;52.93
60061;BME280;45933;51.336;12.612;2023-03-23T08:22:01;98988.00;;;14.78;53.32
60061;BME280;45933;51.336;12.612;2023-03-23T08:24:26;98991.28;;;14.83;53.98
60061;BME280;45933;51.336;12.612;2023-03-23T08:26:52;98989.41;;;14.87;53.83
60061;BME280;45933;51.336;12.612;2023-03-23T08:29:17;98989.25;;;14.90;53.88
60061;BME280;45933;51.336;12.612;2023-03-23T08:31:43;98988.16;;;14.96;53.83
60061;BME280;45933;51.336;12.612;2023-03-23T08:34:09;98980.97;;;15.01;53.82
60061;BME280;45933;51.336;12.612;2023-03-23T08:36:35;98986.94;;;15.04;53.32
60061;BME280;45933;51.336;12.612;2023-03-23T08:39:03;98986.09;;;15.04;54.70
60061;BME280;45933;51.336;12.612;2023-03-23T08:41:30;98990.50;;;15.03;53.76
60061;BME280;45933;51.336;12.612;2023-03-23T08:43:55;98992.78;;;15.11;53.40
60061;BME280;45933;51.336;12.612;2023-03-23T08:46:21;98982.72;;;15.00;54.19
60061;BME280;45933;51.336;12.612;2023-03-23T08:48:47;98988.56;;;15.07;53.95
60061;BME280;45933;51.336;12.612;2023-03-23T08:51:12;98990.34;;;15.06;54.62
60061;BME280;45933;51.336;12.612;2023-03-23T08:53:38;98991.25;;;15.05;54.23
60061;BME280;45933;51.336;12.612;2023-03-23T08:56:09;98991.16;;;15.08;53.47
60061;BME280;45933;51.336;12.612;2023-03-23T08:58:36;98994.88;;;15.03;54.11
60061;BME280;45933;51.336;12.612;2023-03-23T09:01:02;98992.19;;;15.04;54.18
60061;BME280;45933;51.336;12.612;2023-03-23T09:03:28;98993.78;;;15.08;54.89
60061;BME280;45933;51.336;12.612;2023-03-23T09:05:58;98984.97;;;15.09;55.06
60061;BME280;45933;51.336;12.612;2023-03-23T09:08:23;98985.31;;;15.22;54.74
60061;BME280;45933;51.336;12.612;2023-03-23T09:10:48;98978.56;;;15.37;54.43
60061;BME280;45933;51.336;12.612;2023-03-23T09:13:15;98976.88;;;15.36;54.23
60061;BME280;45933;51.336;12.612;2023-03-23T09:15:40;98972.31;;;15.39;53.41
60061;BME280;45933;51.336;12.612;2023-03-23T09:18:06;98979.59;;;15.33;53.62
60061;BME280;45933;51.336;12.612;2023-03-23T09:20:31;98977.25;;;15.47;53.50
60061;BME280;45933;51.336;12.612;2023-03-23T09:23:00;98972.28;;;15.61;52.97
60061;BME280;45933;51.336;12.612;2023-03-23T09:25:27;98970.31;;;15.66;52.59
60061;BME280;45933;51.336;12.612;2023-03-23T09:27:55;98968.00;;;15.79;52.94
60061;BME280;45933;51.336;12.612;2023-03-23T09:30:23;98966.09;;;15.83;53.11
60061;BME280;45933;51.336;12.612;2023-03-23T09:32:49;98972.13;;;15.85;52.04
60061;BME280;45933;51.336;12.612;2023-03-23T09:35:15;98961.50;;;15.88;51.73
60061;BME280;45933;51.336;12.612;2023-03-23T09:37:42;98975.84;;;16.00;51.53
60061;BME280;45933;51.336;12.612;2023-03-23T09:40:15;98978.97;;;16.08;51.51
60061;BME280;45933;51.336;12.612;2023-03-23T09:45:58;98983.66;;;16.39;50.88
60061;BME280;45933;51.336;12.612;2023-03-23T09:48:46;98996.53;;;16.45;50.81
60061;BME280;45933;51.336;12.612;2023-03-23T09:51:24;98990.28;;;16.47;49.50
60061;BME280;45933;51.336;12.612;2023-03-23T09:53:57;98998.53;;;16.40;49.65
60061;BME280;45933;51.336;12.612;2023-03-23T09:56:26;98978.53;;;16.55;49.16
60061;BME280;45933;51.336;12.612;2023-03-23T09:59:19;98987.91;;;16.60;48.84
60061;BME280;45933;51.336;12.612;2023-03-23T10:01:50;98982.22;;;16.69;48.46
60061;BME280;45933;51.336;12.612;2023-03-23T10:04:48;98974.69;;;16.81;48.48
60061;BME280;45933;51.336;12.612;2023-03-23T10:07:16;98984.78;;;16.71;47.91
60061;BME280;45933;51.336;12.612;2023-03-23T10:09:45;98972.63;;;16.68;48.84
60061;BME280;45933;51.336;12.612;2023-03-23T10:12:25;98971.06;;;16.83;48.03
60061;BME280;45933;51.336;12.612;2023-03-23T10:15:03;99002.06;;;16.77;47.85
60061;BME280;45933;51.336;12.612;2023-03-23T10:17:37;98978.34;;;16.78;47.97
60061;BME280;45933;51.336;12.612;2023-03-23T10:22:58;98973.91;;;16.79;48.34
60061;BME280;45933;51.336;12.612;2023-03-23T10:25:29;98974.91;;;16.76;47.81
60061;BME280;45933;51.336;12.612;2023-03-23T10:28:08;98980.78;;;16.81;47.73
60061;BME280;45933;51.336;12.612;2023-03-23T10:30:45;98987.28;;;16.74;47.68
60061;BME280;45933;51.336;12.612;2023-03-23T10:33:20;98978.38;;;16.77;47.63
60061;BME280;45933;51.336;12.612;2023-03-23T10:36:00;98975.75;;;16.77;47.65
60061;BME280;45933;51.336;12.612;2023-03-23T10:38:33;98976.56;;;16.79;47.74
60061;BME280;45933;51.336;12.612;2023-03-23T10:41:04;98981.94;;;16.76;47.84
60061;BME280;45933;51.336;12.612;2023-03-23T10:43:32;98977.53;;;16.76;48.36
60061;BME280;45933;51.336;12.612;2023-03-23T10:46:05;98978.88;;;16.85;48.01
60061;BME280;45933;51.336;12.612;2023-03-23T10:48:38;98982.22;;;16.88;47.51
60061;BME280;45933;51.336;12.612;2023-03-23T10:51:07;98990.81;;;16.92;47.52
60061;BME280;45933;51.336;12.612;2023-03-23T10:53:37;98975.00;;;16.92;47.29
60061;BME280;45933;51.336;12.612;2023-03-23T10:56:03;98987.94;;;16.96;47.34
60061;BME280;45933;51.336;12.612;2023-03-23T10:58:38;98989.09;;;16.91;46.88
60061;BME280;45933;51.336;12.612;2023-03-23T11:01:05;98984.56;;;16.94;47.20
60061;BME280;45933;51.336;12.612;2023-03-23T11:03:45;98982.53;;;16.99;46.99
60061;BME280;45933;51.336;12.612;2023-03-23T11:06:23;98985.72;;;17.06;46.66
60061;BME280;45933;51.336;12.612;2023-03-23T11:09:00;98973.84;;;16.97;46.52
60061;BME280;45933;51.336;12.612;2023-03-23T11:11:28;98987.72;;;17.01;46.69
60061;BME280;45933;51.336;12.612;2023-03-23T11:14:11;98983.09;;;17.06;46.95
60061;BME280;45933;51.336;12.612;2023-03-23T11:16:43;98985.09;;;17.01;46.53
60061;BME280;45933;51.336;12.612;2023-03-23T11:19:25;98980.94;;;17.14;46.06
60061;BME280;45933;51.336;12.612;2023-03-23T11:21:52;98988.28;;;17.08;45.96
60061;BME280;45933;51.336;12.612;2023-03-23T11:24:22;98996.25;;;17.23;46.29
60061;BME280;45933;51.336;12.612;2023-03-23T11:26:47;99002.94;;;17.31;46.91
60061;BME280;45933;51.336;12.612;2023-03-23T11:29:16;98995.72;;;17.34;46.08
60061;BME280;45933;51.336;12.612;2023-03-23T11:31:48;99006.34;;;17.33;46.25
60061;BME280;45933;51.336;12.612;2023-03-23T11:34:24;99005.47;;;17.49;46.39
60061;BME280;45933;51.336;12.612;2023-03-23T11:36:57;99000.16;;;17.51;46.50
60061;BME280;45933;51.336;12.612;2023-03-23T11:39:34;99006.03;;;17.56;45.92
60061;BME280;45933;51.336;12.612;2023-03-23T11:42:16;99005.88;;;17.59;46.13
60061;BME280;45933;51.336;12.612;2023-03-23T11:44:43;98998.66;;;17.63;45.42
60061;BME280;45933;51.336;12.612;2023-03-23T11:47:20;99014.19;;;17.51;42.92
60061;BME280;45933;51.336;12.612;2023-03-23T11:49:58;99012.09;;;17.41;42.57
60061;BME280;45933;51.336;12.612;2023-03-23T11:58:24;99011.38;;;17.37;43.39
60061;BME280;45933;51.336;12.612;2023-03-23T12:01:06;99004.72;;;17.30;43.80
60061;BME280;45933;51.336;12.612;2023-03-23T12:06:57;99004.50;;;17.35;43.56
60061;BME280;45933;51.336;12.612;2023-03-23T12:09:43;99007.13;;;17.35;43.09
60061;BME280;45933;51.336;12.612;2023-03-23T12:12:38;99011.47;;;17.36;43.05
60061;BME280;45933;51.336;12.612;2023-03-23T12:15:24;99006.34;;;17.33;43.60
60061;BME280;45933;51.336;12.612;2023-03-23T12:23:25;99011.84;;;17.28;43.36
60061;BME280;45933;51.336;12.612;2023-03-23T12:28:32;99009.16;;;17.30;43.43
60061;BME280;45933;51.336;12.612;2023-03-23T12:36:56;98989.38;;;17.38;43.84
60061;BME280;45933;51.336;12.612;2023-03-23T12:42:24;98994.56;;;17.57;43.31
60061;BME280;45933;51.336;12.612;2023-03-23T12:45:18;98982.53;;;17.69;43.13
60061;BME280;45933;51.336;12.612;2023-03-23T12:47:57;98973.84;;;17.84;42.91
60061;BME280;45933;51.336;12.612;2023-03-23T12:50:31;98971.53;;;18.11;43.21
60061;BME280;45933;51.336;12.612;2023-03-23T12:53:08;98960.50;;;18.36;42.56
60061;BME280;45933;51.336;12.612;2023-03-23T12:55:44;98947.22;;;18.53;41.88
60061;BME280;45933;51.336;12.612;2023-03-23T12:58:23;98952.66;;;18.82;42.58
60061;BME280;45933;51.336;12.612;2023-03-23T13:01:15;98945.56;;;18.98;42.54
60061;BME280;45933;51.336;12.612;2023-03-23T13:03:55;98941.63;;;19.05;41.83
60061;BME280;45933;51.336;12.612;2023-03-23T13:06:27;98954.78;;;19.21;41.29
60061;BME280;45933;51.336;12.612;2023-03-23T13:08:59;98959.28;;;19.19;41.91
60061;BME280;45933;51.336;12.612;2023-03-23T13:11:37;98964.94;;;19.13;40.63
60061;BME280;45933;51.336;12.612;2023-03-23T13:14:17;98969.16;;;19.31;41.00
60061;BME280;45933;51.336;12.612;2023-03-23T13:16:55;98961.00;;;19.20;40.82
60061;BME280;45933;51.336;12.612;2023-03-23T13:19:49;98961.91;;;19.05;41.23
60061;BME280;45933;51.336;12.612;2023-03-23T13:22:27;98953.19;;;19.03;41.78
60061;BME280;45933;51.336;12.612;2023-03-23T13:24:59;98966.53;;;18.86;41.85
60061;BME280;45933;51.336;12.612;2023-03-23T13:27:26;98961.13;;;18.73;42.21
60061;BME280;45933;51.336;12.612;2023-03-23T13:29:54;98990.53;;;18.65;42.44
60061;BME280;45933;51.336;12.612;2023-03-23T13:32:21;;;;18.35;
60061;BME280;45933;51.336;12.612;2023-03-23T13:34:53;98967.81;;;18.31;43.22
60061;BME280;45933;51.336;12.612;2023-03-23T13:37:25;98962.94;;;18.23;43.27
60061;BME280;45933;51.336;12.612;2023-03-23T13:40:25;98954.03;;;18.26;42.97
60061;BME280;45933;51.336;12.612;2023-03-23T13:42:54;98960.38;;;18.06;43.16
60061;BME280;45933;51.336;12.612;2023-03-23T13:50:55;98934.06;;;17.89;43.60
60061;BME280;45933;51.336;12.612;2023-03-23T13:53:45;98953.84;;;17.80;43.68
60061;BME280;45933;51.336;12.612;2023-03-23T13:56:35;98955.41;;;17.67;43.53
60061;BME280;45933;51.336;12.612;2023-03-23T13:59:46;98958.91;;;17.67;43.57